Terminal Aerodrome Forecast
Issued by NWS

Home | Current Version | Previous Version | Text Only | Print | Product List | Glossary On
Versions: 1 2 3 4 5 6 7 8 9 10 11 12 13 14 15 16 17 18 19 20 21 22 23 24 25 26 27 28 29 30 31 32 33 34 35
000
FTUS45 KLKN 231600 AAA
TAFELY
TAF AMD
KELY 231603Z 2316/2412 16015G25KT P6SM SKC
     FM231800 19019G29KT P6SM SCT100
     FM240300 19015G25KT P6SM SKC
     FM240600 19010KT P6SM SKC=

USA.gov is the U.S. government's official web portal to all federal, state and local government web resources and services.